createdAt,value
2023-01-07T00:00:03.803Z,88.26
2023-01-07T00:01:03.319Z,88.71
2023-01-07T00:02:03.041Z,88.61
2023-01-07T00:03:02.783Z,88.46
2023-01-07T00:04:02.654Z,88.46
2023-01-07T00:05:02.423Z,88.16
2023-01-07T00:06:02.933Z,88.16
2023-01-07T00:07:01.809Z,88.06
2023-01-07T00:08:02.313Z,87.96
2023-01-07T00:09:02.210Z,87.85
2023-01-07T00:10:02.197Z,87.75
2023-01-07T00:11:01.923Z,87.85
2023-01-07T00:12:01.587Z,87.65
2023-01-07T00:13:02.031Z,87.55
2023-01-07T00:14:01.619Z,87.85
2023-01-07T00:15:02.129Z,88.81
2023-01-07T00:16:01.759Z,88.81
2023-01-07T00:17:02.239Z,89.12
2023-01-07T00:18:02.679Z,89.01
2023-01-07T00:19:02.296Z,89.22
2023-01-07T00:20:02.188Z,88.81
2023-01-07T00:21:02.679Z,89.12
2023-01-07T00:22:01.625Z,89.47
2023-01-07T00:23:01.494Z,89.87
2023-01-07T00:24:02.000Z,90.18
2023-01-07T00:25:02.017Z,90.48
2023-01-07T00:26:01.694Z,90.38
2023-01-07T00:27:02.139Z,90.53
2023-01-07T00:28:02.043Z,90.73
2023-01-07T00:29:02.515Z,91.03
2023-01-07T00:30:02.413Z,91.03
2023-01-07T00:31:02.286Z,90.94
2023-01-07T00:32:01.873Z,91.14
2023-01-07T00:33:01.727Z,91.55
2023-01-07T00:34:02.259Z,91.44
2023-01-07T00:35:02.297Z,91.65
2023-01-07T00:36:01.887Z,91.55
2023-01-07T00:37:02.725Z,91.79
2023-01-07T00:38:02.709Z,91.79
2023-01-07T00:39:02.759Z,92.10
2023-01-07T00:40:02.888Z,92.10
2023-01-07T00:41:02.495Z,92.30
2023-01-07T00:42:02.130Z,92.50
2023-01-07T00:43:01.959Z,92.50
2023-01-07T00:44:01.878Z,92.41
2023-01-07T00:45:02.464Z,92.61
2023-01-07T00:46:02.106Z,92.50
2023-01-07T00:47:02.672Z,92.61
2023-01-07T00:48:02.668Z,92.71
2023-01-07T00:49:02.445Z,92.86
2023-01-07T00:50:02.896Z,92.86
2023-01-07T00:51:02.770Z,92.86
2023-01-07T00:52:02.379Z,92.96
2023-01-07T00:53:02.147Z,93.06
2023-01-07T00:54:02.049Z,93.06
2023-01-07T00:55:02.643Z,92.96
2023-01-07T00:56:02.609Z,93.06
2023-01-07T00:57:02.417Z,92.96
2023-01-07T00:58:02.306Z,93.37
2023-01-07T00:59:02.565Z,92.86
2023-01-07T01:00:02.396Z,93.06
2023-01-07T01:01:02.522Z,93.02
2023-01-07T01:02:02.808Z,92.61
2023-01-07T01:03:02.463Z,92.61
2023-01-07T01:04:02.458Z,92.96
2023-01-07T01:05:02.662Z,92.96
2023-01-07T01:06:02.724Z,93.16
2023-01-07T01:07:02.666Z,93.26
2023-01-07T01:08:02.707Z,93.37
2023-01-07T01:09:02.664Z,93.37
2023-01-07T01:10:02.570Z,93.57
2023-01-07T01:11:02.486Z,93.77
2023-01-07T01:12:03.098Z,93.77
2023-01-07T01:13:02.976Z,93.57
2023-01-07T01:14:02.810Z,93.77
2023-01-07T01:15:03.426Z,94.08
2023-01-07T01:16:03.079Z,93.57
2023-01-07T01:17:02.747Z,93.37
2023-01-07T01:18:02.649Z,93.67
2023-01-07T01:19:02.474Z,93.67
2023-01-07T01:20:03.190Z,93.57
2023-01-07T01:21:02.729Z,93.26
2023-01-07T01:22:03.342Z,93.37
2023-01-07T01:23:03.271Z,93.26
2023-01-07T01:24:03.189Z,93.16
2023-01-07T01:25:03.079Z,92.71
2023-01-07T01:26:03.441Z,92.61
2023-01-07T01:27:03.275Z,92.50
2023-01-07T01:28:02.978Z,92.20
2023-01-07T01:29:03.619Z,92.10
2023-01-07T01:30:03.225Z,91.89
2023-01-07T01:31:03.143Z,92.00
2023-01-07T01:32:02.818Z,91.89
2023-01-07T01:33:02.753Z,92.00
2023-01-07T01:34:02.529Z,92.00
2023-01-07T01:35:02.479Z,92.30
2023-01-07T01:36:02.500Z,92.00
2023-01-07T01:37:02.947Z,92.10
2023-01-07T01:38:02.817Z,92.20
2023-01-07T01:39:02.736Z,92.00
2023-01-07T01:40:03.183Z,92.10
2023-01-07T01:41:02.832Z,92.00
2023-01-07T01:42:03.427Z,92.00
2023-01-07T01:43:03.527Z,91.89
2023-01-07T01:44:03.216Z,91.79
2023-01-07T01:45:03.659Z,92.00
2023-01-07T01:46:03.295Z,92.20
2023-01-07T01:47:02.991Z,92.45
2023-01-07T01:48:02.589Z,92.45
2023-01-07T01:49:02.476Z,93.06
2023-01-07T01:50:03.031Z,93.06
2023-01-07T01:51:02.651Z,92.86
2023-01-07T01:52:03.456Z,92.96
2023-01-07T01:53:03.063Z,92.86
2023-01-07T01:54:02.830Z,92.55
2023-01-07T01:55:03.327Z,92.76
2023-01-07T01:56:02.948Z,92.96
2023-01-07T01:57:03.575Z,92.86
2023-01-07T01:58:03.497Z,92.86
2023-01-07T01:59:03.347Z,93.06
2023-01-07T02:00:03.270Z,92.65
2023-01-07T02:01:03.426Z,93.06
2023-01-07T02:02:03.235Z,93.06
2023-01-07T02:03:02.838Z,92.76
2023-01-07T02:04:02.769Z,92.76
2023-01-07T02:05:03.244Z,92.76
2023-01-07T02:06:03.100Z,92.76
2023-01-07T02:07:02.620Z,92.55
2023-01-07T02:08:02.483Z,93.26
2023-01-07T02:09:02.353Z,93.31
2023-01-07T02:10:02.195Z,93.71
2023-01-07T02:11:02.699Z,94.27
2023-01-07T02:12:03.067Z,94.48
2023-01-07T02:13:02.649Z,94.89
2023-01-07T02:14:02.567Z,95.19
2023-01-07T02:15:02.928Z,95.19
2023-01-07T02:16:02.825Z,95.29
2023-01-07T02:17:03.458Z,95.29
2023-01-07T02:18:03.056Z,95.39
2023-01-07T02:19:03.281Z,95.50
2023-01-07T02:20:03.211Z,95.64
2023-01-07T02:21:02.965Z,95.85
2023-01-07T02:22:03.444Z,95.95
2023-01-07T02:23:03.229Z,96.05
2023-01-07T02:24:03.153Z,95.95
2023-01-07T02:25:03.070Z,95.85
2023-01-07T02:26:02.926Z,95.85
2023-01-07T02:27:02.585Z,95.95
2023-01-07T02:28:03.079Z,96.05
2023-01-07T02:29:02.823Z,96.15
2023-01-07T02:30:02.639Z,96.36
2023-01-07T02:31:03.103Z,96.15
2023-01-07T02:32:02.994Z,95.95
2023-01-07T02:33:03.339Z,96.26
2023-01-07T02:34:03.197Z,95.95
2023-01-07T02:35:03.157Z,95.80
2023-01-07T02:36:03.023Z,95.39
2023-01-07T02:37:02.720Z,95.39
2023-01-07T02:38:03.279Z,94.98
2023-01-07T02:39:02.792Z,95.29
2023-01-07T02:40:02.820Z,95.03
2023-01-07T02:41:03.273Z,95.23
2023-01-07T02:42:02.957Z,95.54
2023-01-07T02:43:03.538Z,95.54
2023-01-07T02:44:03.041Z,95.64
2023-01-07T02:45:03.555Z,95.95
2023-01-07T02:46:03.296Z,96.10
2023-01-07T02:47:02.204Z,96.10
2023-01-07T02:48:02.721Z,96.41
2023-01-07T02:49:02.182Z,96.20
2023-01-07T02:50:02.720Z,95.89
2023-01-07T02:51:02.243Z,96.10
2023-01-07T02:52:02.796Z,96.30
2023-01-07T02:53:03.339Z,96.41
2023-01-07T02:54:03.416Z,96.61
2023-01-07T02:55:02.888Z,96.92
2023-01-07T02:56:02.888Z,96.81
2023-01-07T02:57:02.398Z,96.92
2023-01-07T02:58:02.309Z,96.96
2023-01-07T02:59:02.875Z,96.92
2023-01-07T03:00:02.842Z,96.92
2023-01-07T03:01:02.845Z,96.92
2023-01-07T03:02:02.415Z,96.96
2023-01-07T03:03:02.302Z,96.96
2023-01-07T03:04:02.937Z,97.06
2023-01-07T03:05:02.737Z,97.16
2023-01-07T03:06:02.568Z,97.27
2023-01-07T03:07:02.058Z,97.37
2023-01-07T03:08:02.008Z,97.57
2023-01-07T03:09:02.441Z,97.47
2023-01-07T03:10:02.345Z,97.37
2023-01-07T03:11:02.216Z,97.37
2023-01-07T03:12:02.760Z,97.57
2023-01-07T03:13:03.130Z,97.67
2023-01-07T03:14:03.024Z,97.67
2023-01-07T03:15:02.738Z,97.98
2023-01-07T03:16:02.875Z,98.08
2023-01-07T03:17:02.771Z,98.19
2023-01-07T03:18:02.730Z,98.19
2023-01-07T03:19:02.608Z,98.19
2023-01-07T03:20:03.268Z,98.29
2023-01-07T03:21:02.911Z,98.29
2023-01-07T03:22:02.720Z,98.29
2023-01-07T03:23:02.638Z,98.39
2023-01-07T03:24:02.451Z,98.08
2023-01-07T03:25:02.370Z,97.98
2023-01-07T03:26:02.354Z,97.98
2023-01-07T03:27:02.809Z,98.08
2023-01-07T03:28:03.313Z,98.08
2023-01-07T03:29:03.054Z,98.08
2023-01-07T03:30:02.966Z,98.19
2023-01-07T03:31:02.836Z,97.98
2023-01-07T03:32:02.469Z,97.98
2023-01-07T03:33:02.711Z,97.98
2023-01-07T03:34:02.323Z,97.98
2023-01-07T03:35:02.176Z,97.98
2023-01-07T03:36:02.669Z,97.98
2023-01-07T03:37:02.537Z,97.88
2023-01-07T03:38:02.410Z,97.98
2023-01-07T03:39:02.899Z,97.78
2023-01-07T03:40:02.372Z,97.67
2023-01-07T03:41:02.770Z,97.88
2023-01-07T03:42:02.623Z,97.88
2023-01-07T03:43:02.638Z,97.98
2023-01-07T03:44:02.720Z,97.98
2023-01-07T03:45:02.589Z,98.08
2023-01-07T03:46:02.365Z,97.98
2023-01-07T03:47:02.943Z,97.78
2023-01-07T03:48:02.790Z,97.88
2023-01-07T03:49:03.283Z,97.88
2023-01-07T03:50:02.918Z,97.88
2023-01-07T03:51:02.757Z,97.98
2023-01-07T03:52:02.354Z,98.08
2023-01-07T03:53:02.236Z,97.98
2023-01-07T03:54:02.108Z,98.19
2023-01-07T03:55:02.614Z,97.98
2023-01-07T03:56:02.240Z,98.08
2023-01-07T03:57:02.800Z,97.98
2023-01-07T03:58:02.720Z,97.88
2023-01-07T03:59:02.583Z,97.98
2023-01-07T04:00:02.715Z,97.98
2023-01-07T04:01:02.617Z,97.88
2023-01-07T04:02:02.456Z,97.98
2023-01-07T04:03:02.544Z,97.88
2023-01-07T04:04:03.471Z,97.78
2023-01-07T04:05:02.159Z,97.67
2023-01-07T04:06:01.911Z,97.78
2023-01-07T04:07:02.428Z,97.67
2023-01-07T04:08:02.259Z,97.67
2023-01-07T04:09:02.252Z,97.57
2023-01-07T04:10:02.417Z,97.47
2023-01-07T04:11:02.264Z,97.47
2023-01-07T04:12:01.904Z,97.47
2023-01-07T04:13:01.775Z,97.47
2023-01-07T04:14:01.683Z,97.37
2023-01-07T04:15:01.583Z,97.37
2023-01-07T04:16:02.151Z,97.37
2023-01-07T04:17:01.954Z,97.27
2023-01-07T04:18:02.363Z,97.27
2023-01-07T04:19:02.431Z,97.37
2023-01-07T04:20:02.362Z,97.27
2023-01-07T04:21:02.328Z,97.37
2023-01-07T04:22:02.808Z,97.37
2023-01-07T04:23:02.689Z,97.37
2023-01-07T04:24:02.938Z,97.47
2023-01-07T04:25:02.510Z,97.47
2023-01-07T04:26:02.447Z,97.47
2023-01-07T04:27:02.000Z,97.57
2023-01-07T04:28:01.505Z,97.57
2023-01-07T04:29:01.814Z,97.67
2023-01-07T04:30:01.518Z,97.72
2023-01-07T04:31:02.085Z,97.67
2023-01-07T04:32:02.183Z,97.67
2023-01-07T04:33:01.770Z,97.67
2023-01-07T04:34:01.541Z,97.57
2023-01-07T04:35:02.356Z,97.67
2023-01-07T04:36:01.672Z,97.57
2023-01-07T04:37:01.686Z,97.52
2023-01-07T04:38:02.178Z,97.57
2023-01-07T04:39:02.003Z,97.57
2023-01-07T04:40:02.124Z,97.37
2023-01-07T04:41:02.031Z,97.27
2023-01-07T04:42:02.524Z,97.37
2023-01-07T04:43:02.074Z,97.37
2023-01-07T04:44:02.633Z,97.06
2023-01-07T04:45:02.191Z,96.86
2023-01-07T04:46:02.122Z,96.55
2023-01-07T04:47:02.754Z,96.51
2023-01-07T04:48:03.048Z,96.10
2023-01-07T04:49:02.643Z,95.89
2023-01-07T04:50:02.370Z,95.79
2023-01-07T04:51:02.788Z,95.69
2023-01-07T04:52:02.266Z,95.69
2023-01-07T04:53:02.054Z,95.69
2023-01-07T04:54:01.859Z,95.59
2023-01-07T04:55:02.348Z,95.18
2023-01-07T04:56:02.407Z,95.38
2023-01-07T04:57:02.689Z,95.18
2023-01-07T04:58:02.091Z,95.59
2023-01-07T04:59:02.336Z,95.89
2023-01-07T05:00:02.217Z,96.14
2023-01-07T05:01:02.441Z,96.25
2023-01-07T05:02:03.351Z,96.45
2023-01-07T05:03:02.329Z,96.55
2023-01-07T05:04:02.936Z,96.55
2023-01-07T05:05:03.036Z,96.55
2023-01-07T05:06:02.424Z,96.45
2023-01-07T05:07:02.599Z,96.20
2023-01-07T05:08:02.549Z,95.89
2023-01-07T05:09:02.491Z,95.79
2023-01-07T05:10:03.034Z,95.79
2023-01-07T05:11:02.953Z,95.59
2023-01-07T05:12:03.257Z,95.38
2023-01-07T05:13:02.763Z,95.44
2023-01-07T05:14:02.649Z,95.23
2023-01-07T05:15:03.216Z,95.03
2023-01-07T05:16:02.926Z,94.93
2023-01-07T05:17:02.640Z,94.93
2023-01-07T05:18:02.228Z,94.93
2023-01-07T05:19:01.956Z,94.62
2023-01-07T05:20:02.616Z,94.52
2023-01-07T05:21:02.251Z,94.52
2023-01-07T05:22:02.399Z,94.32
2023-01-07T05:23:02.284Z,94.32
2023-01-07T05:24:02.895Z,94.32
2023-01-07T05:25:02.682Z,94.32
2023-01-07T05:26:02.524Z,94.32
2023-01-07T05:27:03.104Z,94.17
2023-01-07T05:28:02.746Z,93.96
2023-01-07T05:29:02.446Z,93.86
2023-01-07T05:30:02.978Z,93.86
2023-01-07T05:31:02.773Z,93.96
2023-01-07T05:32:03.231Z,93.96
2023-01-07T05:33:02.763Z,93.96
2023-01-07T05:34:02.621Z,93.96
2023-01-07T05:35:03.242Z,93.76
2023-01-07T05:36:02.996Z,93.66
2023-01-07T05:37:03.571Z,93.76
2023-01-07T05:38:03.142Z,93.76
2023-01-07T05:39:03.012Z,93.66
2023-01-07T05:40:03.450Z,93.55
2023-01-07T05:41:03.114Z,93.55
2023-01-07T05:42:02.064Z,93.55
2023-01-07T05:43:02.475Z,93.55
2023-01-07T05:44:02.219Z,93.45
2023-01-07T05:45:02.088Z,93.45
2023-01-07T05:46:02.661Z,93.45
2023-01-07T05:47:02.633Z,93.45
2023-01-07T05:48:02.586Z,93.45
2023-01-07T05:49:02.505Z,93.55
2023-01-07T05:50:02.979Z,93.55
2023-01-07T05:51:02.810Z,93.66
2023-01-07T05:52:02.814Z,93.66
2023-01-07T05:53:02.657Z,93.66
2023-01-07T05:54:03.192Z,93.66
2023-01-07T05:55:03.000Z,93.66
2023-01-07T05:56:02.930Z,93.76
2023-01-07T05:57:02.854Z,93.86
2023-01-07T05:58:03.430Z,93.76
2023-01-07T05:59:03.466Z,93.86
2023-01-07T06:00:03.138Z,93.86
2023-01-07T06:01:03.467Z,93.96
2023-01-07T06:02:02.101Z,93.86
2023-01-07T06:03:02.450Z,93.96
2023-01-07T06:04:02.300Z,94.07
2023-01-07T06:05:02.297Z,94.17
2023-01-07T06:06:02.338Z,93.96
2023-01-07T06:07:02.236Z,93.96
2023-01-07T06:08:02.820Z,94.11
2023-01-07T06:09:02.472Z,94.17
2023-01-07T06:10:03.241Z,94.11
2023-01-07T06:11:02.274Z,94.07
2023-01-07T06:12:01.898Z,94.21
2023-01-07T06:13:01.800Z,94.21
2023-01-07T06:14:02.258Z,94.21
2023-01-07T06:15:02.043Z,94.21
2023-01-07T06:16:02.282Z,94.11
2023-01-07T06:17:02.362Z,94.11
2023-01-07T06:18:02.144Z,94.11
2023-01-07T06:19:01.993Z,94.11
2023-01-07T06:20:01.897Z,94.21
2023-01-07T06:21:02.432Z,94.11
2023-01-07T06:22:01.950Z,94.11
2023-01-07T06:23:02.471Z,94.21
2023-01-07T06:24:02.160Z,94.32
2023-01-07T06:25:02.025Z,94.21
2023-01-07T06:26:01.920Z,94.07
2023-01-07T06:27:02.549Z,93.96
2023-01-07T06:28:02.988Z,93.96
2023-01-07T06:29:02.396Z,93.96
2023-01-07T06:30:02.415Z,93.96
2023-01-07T06:31:03.337Z,93.96
2023-01-07T06:32:01.786Z,93.86
2023-01-07T06:33:01.712Z,93.66
2023-01-07T06:34:02.310Z,93.76
2023-01-07T06:35:01.943Z,93.66
2023-01-07T06:36:01.774Z,93.76
2023-01-07T06:37:02.233Z,93.25
2023-01-07T06:38:02.739Z,93.45
2023-01-07T06:39:02.100Z,93.55
2023-01-07T06:40:02.669Z,93.55
2023-01-07T06:41:02.454Z,93.35
2023-01-07T06:42:02.218Z,93.50
2023-01-07T06:43:02.662Z,93.55
2023-01-07T06:44:02.365Z,93.25
2023-01-07T06:45:02.093Z,93.15
2023-01-07T06:46:02.730Z,93.35
2023-01-07T06:47:02.442Z,93.55
2023-01-07T06:48:02.362Z,93.15
2023-01-07T06:49:02.302Z,93.05
2023-01-07T06:50:02.777Z,92.74
2023-01-07T06:51:02.666Z,92.64
2023-01-07T06:52:03.030Z,92.74
2023-01-07T06:53:02.693Z,92.94
2023-01-07T06:54:02.555Z,92.64
2023-01-07T06:55:02.473Z,92.74
2023-01-07T06:56:03.142Z,92.54
2023-01-07T06:57:01.721Z,92.64
2023-01-07T06:58:01.536Z,92.08
2023-01-07T06:59:01.753Z,92.08
2023-01-07T07:00:01.628Z,91.67
2023-01-07T07:01:01.572Z,91.67
2023-01-07T07:02:03.821Z,92.08
2023-01-07T07:03:03.524Z,91.78
2023-01-07T07:04:03.300Z,91.72
2023-01-07T07:05:03.187Z,92.02
2023-01-07T07:06:03.488Z,92.13
2023-01-07T07:07:03.294Z,91.92
2023-01-07T07:08:03.171Z,92.23
2023-01-07T07:09:03.514Z,92.43
2023-01-07T07:10:03.351Z,92.54
2023-01-07T07:11:03.141Z,92.23
2023-01-07T07:12:03.128Z,92.13
2023-01-07T07:13:03.005Z,92.23
2023-01-07T07:14:02.781Z,92.33
2023-01-07T07:15:03.698Z,92.13
2023-01-07T07:16:02.806Z,92.33
2023-01-07T07:17:03.279Z,92.19
2023-01-07T07:18:03.704Z,91.78
2023-01-07T07:19:03.350Z,91.67
2023-01-07T07:20:03.311Z,91.88
2023-01-07T07:21:03.235Z,91.88
2023-01-07T07:22:04.683Z,91.67
2023-01-07T07:23:02.687Z,91.67
2023-01-07T07:24:03.097Z,91.27
2023-01-07T07:25:02.979Z,91.37
2023-01-07T07:26:02.959Z,91.61
2023-01-07T07:27:02.985Z,91.78
2023-01-07T07:28:03.126Z,91.88
2023-01-07T07:29:02.842Z,91.67
2023-01-07T07:30:02.770Z,91.37
2023-01-07T07:31:03.165Z,91.37
2023-01-07T07:32:02.972Z,91.27
2023-01-07T07:33:02.983Z,91.57
2023-01-07T07:34:02.923Z,91.37
2023-01-07T07:35:02.824Z,91.06
2023-01-07T07:36:02.752Z,90.86
2023-01-07T07:37:03.421Z,90.75
2023-01-07T07:38:03.411Z,91.27
2023-01-07T07:39:03.376Z,91.57
2023-01-07T07:40:03.376Z,91.27
2023-01-07T07:41:03.343Z,91.47
2023-01-07T07:42:03.003Z,91.16
2023-01-07T07:43:12.453Z,91.06
2023-01-07T07:44:03.293Z,90.96
2023-01-07T07:45:02.955Z,90.75
2023-01-07T07:46:02.828Z,91.06
2023-01-07T07:47:03.452Z,90.66
2023-01-07T07:48:03.315Z,90.66
2023-01-07T07:49:03.297Z,91.16
2023-01-07T07:50:03.236Z,91.20
2023-01-07T07:51:03.258Z,90.96
2023-01-07T07:52:03.718Z,90.55
2023-01-07T07:53:03.656Z,90.96
2023-01-07T07:54:03.704Z,91.27
2023-01-07T07:55:20.723Z,90.75
2023-01-07T07:56:03.584Z,90.86
2023-01-07T07:57:03.283Z,90.45
2023-01-07T07:58:03.268Z,90.35
2023-01-07T07:59:03.133Z,90.55
2023-01-07T08:00:03.065Z,90.66
2023-01-07T08:01:03.107Z,90.35
2023-01-07T08:02:02.607Z,90.45
2023-01-07T08:03:02.309Z,90.55
2023-01-07T08:04:02.342Z,90.45
2023-01-07T08:05:02.356Z,90.45
2023-01-07T08:06:02.366Z,90.35
2023-01-07T08:07:03.110Z,90.25
2023-01-07T08:08:03.083Z,90.35
2023-01-07T08:09:02.951Z,90.45
2023-01-07T08:10:02.943Z,90.35
2023-01-07T08:11:03.100Z,90.55
2023-01-07T08:12:02.529Z,90.45
2023-01-07T08:13:02.543Z,90.35
2023-01-07T08:14:02.306Z,90.35
2023-01-07T08:15:02.224Z,90.35
2023-01-07T08:16:02.273Z,90.55
2023-01-07T08:17:02.780Z,90.14
2023-01-07T08:18:02.591Z,89.94
2023-01-07T08:19:02.302Z,90.19
2023-01-07T08:20:02.595Z,90.80
2023-01-07T08:21:02.508Z,90.29
2023-01-07T08:22:02.678Z,90.39
2023-01-07T08:23:02.866Z,90.70
2023-01-07T08:24:02.925Z,90.19
2023-01-07T08:25:02.991Z,90.29
2023-01-07T08:26:03.146Z,90.35
2023-01-07T08:27:02.696Z,89.84
2023-01-07T08:28:02.303Z,90.14
2023-01-07T08:29:02.157Z,90.04
2023-01-07T08:30:02.258Z,90.08
2023-01-07T08:31:02.511Z,90.70
2023-01-07T08:32:03.062Z,90.29
2023-01-07T08:33:02.791Z,90.29
2023-01-07T08:34:02.755Z,90.08
2023-01-07T08:35:02.784Z,90.19
2023-01-07T08:36:06.956Z,90.39
2023-01-07T08:37:02.721Z,91.00
2023-01-07T08:38:02.431Z,90.55
2023-01-07T08:39:02.419Z,90.45
2023-01-07T08:40:04.590Z,89.94
2023-01-07T08:41:02.223Z,90.04
2023-01-07T08:42:02.889Z,89.94
2023-01-07T08:43:02.681Z,89.84
2023-01-07T08:44:02.713Z,89.63
2023-01-07T08:45:02.244Z,89.43
2023-01-07T08:46:02.695Z,90.14
2023-01-07T08:47:02.837Z,90.14
2023-01-07T08:48:03.002Z,90.35
2023-01-07T08:49:03.013Z,90.04
2023-01-07T08:50:02.899Z,90.04
2023-01-07T08:51:02.963Z,89.69
2023-01-07T08:52:01.960Z,89.59
2023-01-07T08:53:02.851Z,89.69
2023-01-07T08:54:02.048Z,89.49
2023-01-07T08:55:02.051Z,89.39
2023-01-07T08:56:02.461Z,88.88
2023-01-07T08:57:02.456Z,88.98
2023-01-07T08:58:02.459Z,88.88
2023-01-07T08:59:02.450Z,89.18
2023-01-07T09:00:02.522Z,88.78
2023-01-07T09:01:02.771Z,89.23
2023-01-07T09:02:02.960Z,89.43
2023-01-07T09:03:03.086Z,89.59
2023-01-07T09:04:03.113Z,89.18
2023-01-07T09:05:03.474Z,89.08
2023-01-07T09:06:03.112Z,88.98
2023-01-07T09:07:03.223Z,89.18
2023-01-07T09:08:03.298Z,88.88
2023-01-07T09:09:03.402Z,88.88
2023-01-07T09:10:03.407Z,89.18
2023-01-07T09:11:03.447Z,88.67
2023-01-07T09:12:02.488Z,88.98
2023-01-07T09:13:02.639Z,89.39
2023-01-07T09:14:03.122Z,88.78
2023-01-07T09:15:02.878Z,88.78
2023-01-07T09:16:02.978Z,89.08
2023-01-07T09:17:02.750Z,88.88
2023-01-07T09:18:03.278Z,89.18
2023-01-07T09:19:03.066Z,89.08
2023-01-07T09:20:03.146Z,88.37
2023-01-07T09:21:03.165Z,88.67
2023-01-07T09:22:03.182Z,88.37
2023-01-07T09:23:03.123Z,88.57
2023-01-07T09:24:03.145Z,88.78
2023-01-07T09:25:03.171Z,88.98
2023-01-07T09:27:02.527Z,88.63
2023-01-07T09:28:02.533Z,88.53
2023-01-07T09:29:02.436Z,88.32
2023-01-07T09:30:02.436Z,88.32
2023-01-07T09:31:03.026Z,88.32
2023-01-07T09:32:03.145Z,88.63
2023-01-07T09:33:03.124Z,87.71
2023-01-07T09:34:03.186Z,87.92
2023-01-07T09:35:03.142Z,87.71
2023-01-07T09:36:03.295Z,87.51
2023-01-07T09:37:03.318Z,87.41
2023-01-07T09:38:03.393Z,87.61
2023-01-07T09:39:03.266Z,88.02
2023-01-07T09:40:03.419Z,88.43
2023-01-07T09:41:03.473Z,88.43
2023-01-07T09:42:02.552Z,88.53
2023-01-07T09:43:02.605Z,88.43
2023-01-07T09:44:04.780Z,87.92
2023-01-07T09:45:02.594Z,88.32
2023-01-07T09:46:02.649Z,87.98
2023-01-07T09:47:02.859Z,87.47
2023-01-07T09:48:02.782Z,86.65
2023-01-07T09:49:02.861Z,86.59
2023-01-07T09:50:03.191Z,86.69
2023-01-07T09:51:03.143Z,87.10
2023-01-07T09:52:02.666Z,86.90
2023-01-07T09:53:02.555Z,86.90
2023-01-07T09:54:02.533Z,87.20
2023-01-07T09:55:02.742Z,86.69
2023-01-07T09:56:10.936Z,87.00
2023-01-07T09:57:03.073Z,86.80
2023-01-07T09:58:03.299Z,87.00
2023-01-07T09:59:03.237Z,86.55
2023-01-07T10:00:03.355Z,85.84
2023-01-07T10:01:03.272Z,86.04
2023-01-07T10:02:03.333Z,86.45
2023-01-07T10:03:03.439Z,86.35
2023-01-07T10:04:03.555Z,85.94
2023-01-07T10:05:03.595Z,85.63
2023-01-07T10:06:03.561Z,85.53
2023-01-07T10:07:03.011Z,85.02
2023-01-07T10:08:30.474Z,85.33
2023-01-07T10:09:03.169Z,85.43
2023-01-07T10:10:03.293Z,84.72
2023-01-07T10:11:03.090Z,84.11
2023-01-07T10:12:03.233Z,83.90
2023-01-07T10:13:03.397Z,84.31
2023-01-07T10:14:03.221Z,84.37
2023-01-07T10:15:03.248Z,84.27
2023-01-07T10:16:03.457Z,84.17
2023-01-07T10:17:03.174Z,83.42
2023-01-07T10:18:03.343Z,83.62
2023-01-07T10:19:03.358Z,82.40
2023-01-07T10:20:03.539Z,82.19
2023-01-07T10:21:03.345Z,82.50
2023-01-07T10:22:03.217Z,81.88
2023-01-07T10:23:03.055Z,81.68
2023-01-07T10:24:03.029Z,81.58
2023-01-07T10:25:03.436Z,81.58
2023-01-07T10:26:03.129Z,81.68
2023-01-07T10:27:02.999Z,82.05
2023-01-07T10:28:03.099Z,81.95
2023-01-07T10:29:03.020Z,81.85
2023-01-07T10:30:02.978Z,81.04
2023-01-07T10:31:02.615Z,81.13
2023-01-07T10:32:03.377Z,80.63
2023-01-07T10:33:03.417Z,81.13
2023-01-07T10:34:03.359Z,81.24
2023-01-07T10:35:03.312Z,81.24
2023-01-07T10:36:03.335Z,81.04
2023-01-07T10:37:02.678Z,80.93
2023-01-07T10:38:02.692Z,80.32
2023-01-07T10:39:02.725Z,80.73
2023-01-07T10:40:02.946Z,80.32
2023-01-07T10:41:02.705Z,81.04
2023-01-07T10:42:02.803Z,80.90
2023-01-07T10:43:02.829Z,79.98
2023-01-07T10:44:02.896Z,79.98
2023-01-07T10:45:02.474Z,79.47
2023-01-07T10:46:02.521Z,79.06
2023-01-07T10:47:02.797Z,79.61
2023-01-07T10:48:02.783Z,80.22
2023-01-07T10:49:02.808Z,79.88
2023-01-07T10:50:03.473Z,80.18
2023-01-07T10:51:03.173Z,79.77
2023-01-07T10:52:02.874Z,79.06
2023-01-07T10:53:02.766Z,79.57
2023-01-07T10:54:02.764Z,78.35
2023-01-07T10:55:02.704Z,78.76
2023-01-07T10:56:02.679Z,78.45
2023-01-07T10:57:03.422Z,79.06
2023-01-07T10:58:03.452Z,79.27
2023-01-07T10:59:03.457Z,79.06
2023-01-07T11:00:03.370Z,78.35
2023-01-07T11:01:03.619Z,77.47
2023-01-07T11:02:03.153Z,77.78
2023-01-07T11:03:03.034Z,78.08
2023-01-07T11:04:02.865Z,77.47
2023-01-07T11:05:03.074Z,77.06
2023-01-07T11:06:02.676Z,77.61
2023-01-07T11:07:03.412Z,77.51
2023-01-07T11:08:03.235Z,78.32
2023-01-07T11:09:03.166Z,78.12
2023-01-07T11:10:03.115Z,78.32
2023-01-07T11:11:03.058Z,78.02
2023-01-07T11:12:02.840Z,78.63
2023-01-07T11:13:02.506Z,77.71
2023-01-07T11:14:02.424Z,77.40
2023-01-07T11:15:02.201Z,77.61
2023-01-07T11:16:02.251Z,77.71
2023-01-07T11:17:02.965Z,78.02
2023-01-07T11:18:02.724Z,77.51
2023-01-07T11:19:02.388Z,77.81
2023-01-07T11:20:03.063Z,78.53
2023-01-07T11:21:02.787Z,77.71
2023-01-07T11:22:03.365Z,78.12
2023-01-07T11:23:03.001Z,78.02
2023-01-07T11:24:02.850Z,77.81
2023-01-07T11:25:02.853Z,77.75
2023-01-07T11:26:03.441Z,78.26
2023-01-07T11:27:02.820Z,78.26
2023-01-07T11:28:02.811Z,77.85
2023-01-07T11:29:02.236Z,78.16
2023-01-07T11:30:02.813Z,78.56
2023-01-07T11:31:02.490Z,79.07
2023-01-07T11:32:03.125Z,78.66
2023-01-07T11:33:03.118Z,78.36
2023-01-07T11:34:04.673Z,78.66
2023-01-07T11:35:02.549Z,78.66
2023-01-07T11:36:02.540Z,78.87
2023-01-07T11:37:03.554Z,78.97
2023-01-07T11:38:02.617Z,78.87
2023-01-07T11:39:02.589Z,78.87
2023-01-07T11:40:03.185Z,79.03
2023-01-07T11:41:02.930Z,78.53
2023-01-07T11:42:03.615Z,78.22
2023-01-07T11:43:03.170Z,78.12
2023-01-07T11:44:03.182Z,78.32
2023-01-07T11:45:02.975Z,77.75
2023-01-07T11:46:19.616Z,77.75
2023-01-07T11:47:03.745Z,77.55
2023-01-07T11:48:03.394Z,77.75
2023-01-07T11:49:03.388Z,78.26
2023-01-07T11:50:03.192Z,79.07
2023-01-07T11:51:03.792Z,78.12
2023-01-07T11:52:02.489Z,77.55
2023-01-07T11:53:03.013Z,77.24
2023-01-07T11:54:02.866Z,77.44
2023-01-07T11:55:02.754Z,77.03
2023-01-07T11:56:02.769Z,76.83
2023-01-07T11:57:02.780Z,76.93
2023-01-07T11:58:28.827Z,77.03
2023-01-07T11:59:03.199Z,77.03
2023-01-07T12:00:03.094Z,77.64
2023-01-07T12:01:02.946Z,77.75
2023-01-07T12:02:03.462Z,77.24
2023-01-07T12:03:03.119Z,77.75
2023-01-07T12:04:02.637Z,77.95
2023-01-07T12:05:02.702Z,77.71
2023-01-07T12:06:02.536Z,77.61
2023-01-07T12:07:02.612Z,77.61
2023-01-07T12:08:03.348Z,77.61
2023-01-07T12:09:03.360Z,77.10
2023-01-07T12:10:03.137Z,77.30
2023-01-07T12:11:02.931Z,76.90
2023-01-07T12:12:03.467Z,76.79
2023-01-07T12:13:03.315Z,76.93
2023-01-07T12:14:03.038Z,77.03
2023-01-07T12:15:03.049Z,76.93
2023-01-07T12:16:03.459Z,77.44
2023-01-07T12:17:03.134Z,77.61
2023-01-07T12:18:03.108Z,77.71
2023-01-07T12:19:03.090Z,77.61
2023-01-07T12:20:02.945Z,77.40
2023-01-07T12:21:02.981Z,77.51
2023-01-07T12:22:02.972Z,77.71
2023-01-07T12:23:02.733Z,76.59
2023-01-07T12:24:02.628Z,77.10
2023-01-07T12:25:02.490Z,76.49
2023-01-07T12:26:02.474Z,77.10
2023-01-07T12:27:02.487Z,76.69
2023-01-07T12:28:03.073Z,76.79
2023-01-07T12:29:03.027Z,76.79
2023-01-07T12:30:02.995Z,76.49
2023-01-07T12:31:03.033Z,76.59
2023-01-07T12:32:02.983Z,77.00
2023-01-07T12:33:02.546Z,76.79
2023-01-07T12:34:02.537Z,77.00
2023-01-07T12:35:15.504Z,77.10
2023-01-07T12:36:02.364Z,77.00
2023-01-07T12:37:02.378Z,77.30
2023-01-07T12:38:03.326Z,77.00
2023-01-07T12:39:02.992Z,77.10
2023-01-07T12:40:03.310Z,76.79
2023-01-07T12:41:02.956Z,76.90
2023-01-07T12:42:03.024Z,77.10
2023-01-07T12:43:02.786Z,76.49
2023-01-07T12:44:02.670Z,76.59
2023-01-07T12:45:02.603Z,77.00
2023-01-07T12:46:02.687Z,77.40
2023-01-07T12:47:30.629Z,77.30
2023-01-07T12:48:03.346Z,77.20
2023-01-07T12:49:03.199Z,76.79
2023-01-07T12:50:03.131Z,77.20
2023-01-07T12:51:02.964Z,77.30
2023-01-07T12:52:03.593Z,77.10
2023-01-07T12:53:03.115Z,77.51